createdAt,value
2023-07-09T00:01:03.310Z,100383.03
2023-07-09T00:04:05.583Z,100393.19
2023-07-09T00:07:17.316Z,100399.03
2023-07-09T00:10:22.341Z,100381.16
2023-07-09T00:13:26.068Z,100404.50
2023-07-09T00:16:27.946Z,100409.97
2023-07-09T00:19:30.633Z,100414.81
2023-07-09T00:22:32.510Z,100415.13
2023-07-09T00:25:37.160Z,100406.97
2023-07-09T00:28:39.312Z,100400.78
2023-07-09T00:31:42.602Z,100394.81
2023-07-09T00:34:49.470Z,100407.66
2023-07-09T00:37:52.062Z,100412.38
2023-07-09T00:41:04.592Z,100402.97
2023-07-09T00:44:26.489Z,100393.34
2023-07-09T00:47:43.246Z,100402.69
2023-07-09T00:50:51.355Z,100398.50
2023-07-09T00:53:59.572Z,100382.22
2023-07-09T00:57:07.993Z,100392.09
2023-07-09T01:00:15.574Z,100382.59
2023-07-09T01:03:27.163Z,100392.22
2023-07-09T01:06:33.450Z,100391.50
2023-07-09T01:09:42.123Z,100393.53
2023-07-09T01:12:47.042Z,100391.03
2023-07-09T01:15:51.088Z,100377.81
2023-07-09T01:18:53.532Z,100390.53
2023-07-09T01:22:00.060Z,100403.28
2023-07-09T01:25:07.095Z,100399.78
2023-07-09T01:28:09.296Z,100381.28
2023-07-09T01:31:12.846Z,100407.63
2023-07-09T01:34:16.657Z,100411.50
2023-07-09T01:37:23.659Z,100387.88
2023-07-09T01:40:32.842Z,100402.22
2023-07-09T01:43:37.818Z,100415.47
2023-07-09T01:46:40.229Z,100412.34
2023-07-09T01:49:42.142Z,100416.50
2023-07-09T01:52:46.949Z,100396.22
2023-07-09T01:55:48.879Z,100428.53
2023-07-09T01:58:50.769Z,100425.72
2023-07-09T02:01:54.743Z,100425.97
2023-07-09T02:04:57.758Z,100426.84
2023-07-09T02:08:01.182Z,100420.72
2023-07-09T02:11:03.046Z,100402.44
2023-07-09T02:14:05.620Z,100423.47
2023-07-09T02:17:09.274Z,100420.13
2023-07-09T02:20:12.523Z,100419.31
2023-07-09T02:23:15.765Z,100401.13
2023-07-09T02:26:18.123Z,100428.44
2023-07-09T02:29:20.043Z,100436.44
2023-07-09T02:32:23.887Z,100406.69
2023-07-09T02:35:26.024Z,100424.13
2023-07-09T02:38:29.220Z,100426.31
2023-07-09T02:41:32.026Z,100422.16
2023-07-09T02:44:33.877Z,100427.03
2023-07-09T02:47:36.249Z,100409.53
2023-07-09T02:50:38.129Z,100424.38
2023-07-09T02:53:42.364Z,100412.59
2023-07-09T02:56:44.278Z,100426.38
2023-07-09T02:59:46.135Z,100423.25
2023-07-09T03:02:49.229Z,100421.06
2023-07-09T03:05:51.143Z,100399.09
2023-07-09T03:08:55.381Z,100430.44
2023-07-09T03:11:57.408Z,100415.78
2023-07-09T03:15:00.614Z,100406.44
2023-07-09T03:18:02.563Z,100445.66
2023-07-09T03:21:05.482Z,100435.09
2023-07-09T03:24:09.706Z,100447.78
2023-07-09T03:27:11.614Z,100445.13
2023-07-09T03:30:13.681Z,100422.09
2023-07-09T03:33:17.878Z,100427.25
2023-07-09T03:36:21.279Z,100418.59
2023-07-09T03:39:25.275Z,100440.06
2023-07-09T03:42:27.135Z,100448.22
2023-07-09T03:45:29.958Z,100445.38
2023-07-09T03:48:31.895Z,100434.53
2023-07-09T03:51:33.819Z,100440.41
2023-07-09T03:54:37.271Z,100444.03
2023-07-09T03:57:39.087Z,100437.13
2023-07-09T04:00:41.744Z,100445.94
2023-07-09T04:03:43.988Z,100430.25
2023-07-09T04:06:45.812Z,100439.41
2023-07-09T04:09:49.195Z,100447.84
2023-07-09T04:12:51.686Z,100441.81
2023-07-09T04:15:53.556Z,100443.91
2023-07-09T04:18:55.824Z,100438.66
2023-07-09T04:21:57.768Z,100448.38
2023-07-09T04:25:01.143Z,100454.47
2023-07-09T04:28:03.021Z,100448.63
2023-07-09T04:31:05.112Z,100457.13
2023-07-09T04:34:08.196Z,100453.16
2023-07-09T04:37:12.607Z,100451.63
2023-07-09T04:40:16.453Z,100415.81
2023-07-09T04:43:18.282Z,100452.06
2023-07-09T04:46:20.230Z,100447.13
2023-07-09T04:49:22.776Z,100452.66
2023-07-09T04:52:24.704Z,100451.19
2023-07-09T04:55:28.140Z,100460.03
2023-07-09T04:58:30.725Z,100458.28
2023-07-09T05:01:32.948Z,100459.66
2023-07-09T05:04:35.709Z,100460.94
2023-07-09T05:07:37.694Z,100451.34
2023-07-09T05:10:43.788Z,100427.41
2023-07-09T05:13:45.667Z,100465.72
2023-07-09T05:16:47.592Z,100455.31
2023-07-09T05:19:49.664Z,100453.50
2023-07-09T05:22:51.525Z,100444.25
2023-07-09T05:25:58.766Z,100436.69
2023-07-09T05:29:00.984Z,100452.31
2023-07-09T05:32:03.047Z,100452.34
2023-07-09T05:35:06.651Z,100454.47
2023-07-09T05:38:08.496Z,100456.34
2023-07-09T05:41:12.005Z,100448.88
2023-07-09T05:44:13.820Z,100453.69
2023-07-09T05:47:16.001Z,100455.97
2023-07-09T05:50:18.701Z,100458.88
2023-07-09T05:53:20.527Z,100446.00
2023-07-09T05:56:23.699Z,100449.06
2023-07-09T05:59:25.506Z,100443.66
2023-07-09T06:02:27.613Z,100457.69
2023-07-09T06:05:30.690Z,100445.59
2023-07-09T06:08:32.519Z,100420.84
2023-07-09T06:11:36.177Z,100448.28
2023-07-09T06:14:38.031Z,100442.81
2023-07-09T06:17:40.635Z,100444.28
2023-07-09T06:20:42.609Z,100448.09
2023-07-09T06:23:45.942Z,100446.91
2023-07-09T06:26:49.196Z,100460.69
2023-07-09T06:29:51.502Z,100450.91
2023-07-09T06:32:53.437Z,100456.69
2023-07-09T06:35:58.339Z,100445.28
2023-07-09T06:38:59.972Z,100440.94
2023-07-09T06:42:04.306Z,100448.38
2023-07-09T06:45:08.467Z,100448.56
2023-07-09T06:48:10.446Z,100442.22
2023-07-09T06:51:12.710Z,100442.81
2023-07-09T06:54:16.720Z,100443.19
2023-07-09T06:57:20.011Z,100432.91
2023-07-09T07:00:22.787Z,100447.03
2023-07-09T07:03:25.256Z,100408.75
2023-07-09T07:06:27.432Z,100417.25
2023-07-09T07:09:29.359Z,100406.97
2023-07-09T07:12:43.252Z,100406.16
2023-07-09T07:15:49.300Z,100361.91
2023-07-09T07:18:51.603Z,100409.69
2023-07-09T07:21:53.534Z,100415.72
2023-07-09T07:24:55.346Z,100409.94
2023-07-09T07:27:58.610Z,100416.63
2023-07-09T07:31:02.572Z,100389.09
2023-07-09T07:34:04.392Z,100413.41
2023-07-09T07:37:06.487Z,100391.22
2023-07-09T07:40:09.766Z,100411.50
2023-07-09T07:43:13.272Z,100422.09
2023-07-09T07:46:15.538Z,100418.44
2023-07-09T07:49:17.390Z,100387.34
2023-07-09T07:52:19.297Z,100421.47
2023-07-09T07:55:21.394Z,100415.25
2023-07-09T07:58:24.757Z,100419.00
2023-07-09T08:01:27.724Z,100402.59
2023-07-09T08:04:29.838Z,100383.28
2023-07-09T08:07:31.774Z,100390.94
2023-07-09T08:10:34.300Z,100391.06
2023-07-09T08:13:38.955Z,100363.88
2023-07-09T08:16:41.227Z,100400.34
2023-07-09T08:19:47.392Z,100384.19
2023-07-09T08:22:49.299Z,100406.78
2023-07-09T08:25:54.240Z,100388.16
2023-07-09T08:28:57.562Z,100399.06
2023-07-09T08:32:00.417Z,100416.13
2023-07-09T08:38:07.240Z,100428.56
2023-07-09T08:41:20.085Z,100413.41
2023-07-09T08:44:46.206Z,100410.16
2023-07-09T08:47:55.866Z,100402.28
2023-07-09T08:51:02.238Z,100402.81
2023-07-09T08:54:06.139Z,100371.44
2023-07-09T08:57:19.252Z,100397.91
2023-07-09T09:00:30.837Z,100405.34
2023-07-09T09:03:40.887Z,100372.63
2023-07-09T09:06:47.267Z,100329.91
2023-07-09T09:09:57.946Z,100341.59
2023-07-09T09:13:11.782Z,100416.94
2023-07-09T09:16:26.114Z,100411.59
2023-07-09T09:19:38.099Z,100395.78
2023-07-09T09:22:46.174Z,100408.75
2023-07-09T09:26:04.486Z,100400.91
2023-07-09T09:29:17.247Z,100404.47
2023-07-09T09:32:27.324Z,100412.28
2023-07-09T09:35:31.543Z,100384.75
2023-07-09T09:38:37.191Z,100390.38
2023-07-09T09:41:39.663Z,100416.25
2023-07-09T09:44:46.084Z,100411.00
2023-07-09T09:47:50.171Z,100385.72
2023-07-09T09:50:52.735Z,100352.84
2023-07-09T09:53:59.553Z,100340.66
2023-07-09T09:57:01.413Z,100394.28
2023-07-09T10:00:09.489Z,100400.84
2023-07-09T10:03:14.167Z,100399.47
2023-07-09T10:06:20.163Z,100379.97
2023-07-09T10:09:34.217Z,100386.97
2023-07-09T10:12:46.852Z,100386.81
2023-07-09T10:15:59.782Z,100395.69
2023-07-09T10:19:14.413Z,100393.59
2023-07-09T10:22:29.547Z,100389.78
2023-07-09T10:25:39.322Z,100362.16
2023-07-09T10:29:00.042Z,100376.13
2023-07-09T10:32:09.620Z,100375.53
2023-07-09T10:35:21.529Z,100378.50
2023-07-09T10:38:40.277Z,100380.50
2023-07-09T10:41:44.533Z,100386.72
2023-07-09T10:44:54.490Z,100371.78
2023-07-09T10:48:01.674Z,100370.47
2023-07-09T10:51:14.808Z,100387.31
2023-07-09T10:54:24.285Z,100380.91
2023-07-09T10:57:30.405Z,100363.81
2023-07-09T11:00:37.826Z,100352.72
2023-07-09T11:03:45.344Z,100358.97
2023-07-09T11:06:53.506Z,100350.47
2023-07-09T11:09:59.748Z,100362.88
2023-07-09T11:13:06.512Z,100362.56
2023-07-09T11:16:13.515Z,100371.59
2023-07-09T11:19:19.855Z,100379.72
2023-07-09T11:22:26.430Z,100340.47
2023-07-09T11:25:30.458Z,100360.97
2023-07-09T11:28:36.160Z,100340.66
2023-07-09T11:31:40.560Z,100339.34
2023-07-09T11:34:47.996Z,100341.25
2023-07-09T11:37:52.069Z,100361.34
2023-07-09T11:40:57.462Z,100349.03
2023-07-09T11:44:11.961Z,100359.97
2023-07-09T11:47:21.607Z,100341.28
2023-07-09T11:50:26.384Z,100345.09
2023-07-09T11:53:39.048Z,100337.09
2023-07-09T11:56:41.093Z,100333.31
2023-07-09T11:59:44.107Z,100329.22
2023-07-09T12:02:46.165Z,100341.75
2023-07-09T12:05:52.494Z,100322.94
2023-07-09T12:08:56.808Z,100320.72
2023-07-09T12:11:58.776Z,100324.00
2023-07-09T12:15:00.735Z,100323.19
2023-07-09T12:18:10.130Z,100288.50
2023-07-09T12:21:12.057Z,100320.66
2023-07-09T12:24:22.717Z,100312.78
2023-07-09T12:27:27.397Z,100302.69
2023-07-09T12:30:33.470Z,100314.16
2023-07-09T12:33:35.341Z,100314.75
2023-07-09T12:36:39.377Z,100306.22
2023-07-09T12:39:42.859Z,100294.94
2023-07-09T12:42:45.701Z,100268.44
2023-07-09T12:45:48.030Z,100293.47
2023-07-09T12:48:53.467Z,100291.53
2023-07-09T12:51:56.124Z,100271.41
2023-07-09T12:55:01.551Z,100290.38
2023-07-09T12:58:03.370Z,100290.94
2023-07-09T13:01:08.891Z,100271.91
2023-07-09T13:04:13.787Z,100287.78
2023-07-09T13:07:30.944Z,100280.53
2023-07-09T13:10:42.172Z,100270.28
2023-07-09T13:13:55.826Z,100269.56
2023-07-09T13:17:04.759Z,100265.72
2023-07-09T13:20:07.141Z,100280.53
2023-07-09T13:23:12.085Z,100191.03
2023-07-09T13:26:15.702Z,100280.53
2023-07-09T13:29:19.662Z,100277.97
2023-07-09T13:32:21.588Z,100268.00
2023-07-09T13:35:23.486Z,100263.94
2023-07-09T13:38:25.836Z,100261.81
2023-07-09T13:41:29.148Z,100265.00
2023-07-09T13:44:34.520Z,100262.78
2023-07-09T13:47:37.301Z,100236.25
2023-07-09T13:50:39.599Z,100270.44
2023-07-09T13:53:41.748Z,100259.25
2023-07-09T13:56:45.570Z,100252.59
2023-07-09T13:59:47.628Z,100257.28
2023-07-09T14:02:50.263Z,100226.94
2023-07-09T14:05:53.252Z,100248.94
2023-07-09T14:08:55.499Z,100242.78
2023-07-09T14:11:58.787Z,100250.72
2023-07-09T14:15:03.085Z,100251.03
2023-07-09T14:18:06.690Z,100250.72
2023-07-09T14:21:14.587Z,100249.09
2023-07-09T14:24:23.122Z,100252.34
2023-07-09T14:27:26.467Z,100248.75
2023-07-09T14:30:29.763Z,100227.47
2023-07-09T14:33:31.882Z,100229.34
2023-07-09T14:36:34.479Z,100245.38
2023-07-09T14:39:36.504Z,100245.75
2023-07-09T14:42:41.239Z,100257.25
2023-07-09T14:45:44.003Z,100249.59
2023-07-09T14:48:45.898Z,100258.38
2023-07-09T14:51:52.527Z,100175.78
2023-07-09T14:54:54.409Z,100236.78
2023-07-09T14:58:01.598Z,100238.63
2023-07-09T15:01:03.965Z,100234.00
2023-07-09T15:04:27.134Z,100223.38
2023-07-09T15:07:31.188Z,100239.53
2023-07-09T15:10:33.135Z,100222.28
2023-07-09T15:13:38.025Z,100227.50
2023-07-09T15:16:40.697Z,100221.44
2023-07-09T15:19:42.642Z,100227.75
2023-07-09T15:22:46.873Z,100207.69
2023-07-09T15:25:48.778Z,100213.22
2023-07-09T15:28:52.664Z,100185.25
2023-07-09T15:31:54.609Z,100216.16
2023-07-09T15:34:57.329Z,100238.34
2023-07-09T15:37:59.884Z,100216.13
2023-07-09T15:41:02.668Z,100212.31
2023-07-09T15:44:06.550Z,100217.78
2023-07-09T15:47:17.414Z,100174.88
2023-07-09T15:50:23.120Z,100213.41
2023-07-09T15:53:26.977Z,100207.97
2023-07-09T15:56:31.304Z,100216.97
2023-07-09T15:59:36.619Z,100211.78
2023-07-09T16:02:38.600Z,100213.97
2023-07-09T16:05:41.263Z,100207.09
2023-07-09T16:08:43.152Z,100200.59
2023-07-09T16:11:47.972Z,100208.06
2023-07-09T16:14:51.270Z,100180.53
2023-07-09T16:17:54.043Z,100208.72
2023-07-09T16:20:56.887Z,100217.47
2023-07-09T16:24:03.340Z,100219.50
2023-07-09T16:27:09.566Z,100212.50
2023-07-09T16:30:17.332Z,100212.53
2023-07-09T16:33:19.466Z,100203.97
2023-07-09T16:36:22.190Z,100207.50
2023-07-09T16:39:27.583Z,100199.25
2023-07-09T16:42:30.237Z,100195.66
2023-07-09T16:45:33.745Z,100181.28
2023-07-09T16:48:35.787Z,100221.88
2023-07-09T16:51:37.708Z,100145.97
2023-07-09T16:54:39.711Z,100147.59
2023-07-09T16:57:42.198Z,100211.31
2023-07-09T17:00:45.696Z,100205.63
2023-07-09T17:03:49.082Z,100204.28
2023-07-09T17:06:51.767Z,100212.59
2023-07-09T17:09:54.352Z,100206.44
2023-07-09T17:12:59.231Z,100199.88
2023-07-09T17:16:02.784Z,100204.41
2023-07-09T17:19:09.632Z,100195.22
2023-07-09T17:22:19.596Z,100207.31
2023-07-09T17:25:31.101Z,100188.00
2023-07-09T17:28:33.283Z,100201.22
2023-07-09T17:31:37.449Z,100166.22
2023-07-09T17:34:39.402Z,100191.41
2023-07-09T17:37:46.898Z,100209.03
2023-07-09T17:40:49.326Z,100194.03
2023-07-09T17:43:51.171Z,100192.00
2023-07-09T17:46:56.390Z,100205.03
2023-07-09T17:49:58.655Z,100197.44
2023-07-09T17:53:01.446Z,100202.31
2023-07-09T17:56:05.168Z,100201.50
2023-07-09T17:59:11.743Z,100194.88
2023-07-09T18:02:17.767Z,100202.16
2023-07-09T18:05:27.737Z,100184.47
2023-07-09T18:08:30.450Z,100182.44
2023-07-09T18:11:37.761Z,100192.50
2023-07-09T18:14:43.930Z,100188.38
2023-07-09T18:17:47.497Z,100181.53
2023-07-09T18:20:50.183Z,100178.41
2023-07-09T18:23:52.812Z,100197.88
2023-07-09T18:26:57.341Z,100197.81
2023-07-09T18:30:00.052Z,100194.88
2023-07-09T18:33:06.803Z,100178.59
2023-07-09T18:36:09.323Z,100170.25
2023-07-09T18:39:11.690Z,100184.03
2023-07-09T18:42:16.807Z,100186.31
2023-07-09T18:45:21.100Z,100193.34
2023-07-09T18:48:25.581Z,100198.03
2023-07-09T18:51:28.092Z,100203.44
2023-07-09T18:54:30.189Z,100190.16
2023-07-09T18:57:32.050Z,100191.34
2023-07-09T19:00:34.826Z,100212.13
2023-07-09T19:03:39.502Z,100192.00
2023-07-09T19:06:41.300Z,100206.97
2023-07-09T19:09:44.647Z,100214.00
2023-07-09T19:12:48.626Z,100207.59
2023-07-09T19:15:52.277Z,100214.25
2023-07-09T19:18:56.069Z,100211.16
2023-07-09T19:21:58.245Z,100200.75
2023-07-09T19:25:00.734Z,100179.22
2023-07-09T19:28:02.978Z,100216.44
2023-07-09T19:31:05.768Z,100227.41
2023-07-09T19:34:11.983Z,100211.97
2023-07-09T19:37:20.855Z,100217.41
2023-07-09T19:40:26.767Z,100181.47
2023-07-09T19:43:28.726Z,100211.16
2023-07-09T19:46:31.217Z,100198.78
2023-07-09T19:49:34.492Z,100209.75
2023-07-09T19:52:37.447Z,100213.53
2023-07-09T19:55:40.220Z,100214.56
2023-07-09T19:58:43.221Z,100215.75
2023-07-09T20:01:49.637Z,100208.09
2023-07-09T20:04:52.962Z,100245.31
2023-07-09T20:07:57.728Z,100256.03
2023-07-09T20:11:03.002Z,100247.63
2023-07-09T20:14:14.198Z,100261.28
2023-07-09T20:17:16.799Z,100263.66
2023-07-09T20:20:20.980Z,100255.38
2023-07-09T20:23:25.127Z,100265.19
2023-07-09T20:26:27.223Z,100242.78
2023-07-09T20:29:29.977Z,100250.50
2023-07-09T20:32:32.410Z,100263.63
2023-07-09T20:35:36.772Z,100257.91
2023-07-09T20:38:39.691Z,100248.19
2023-07-09T20:41:44.617Z,100256.97
2023-07-09T20:44:47.458Z,100256.34
2023-07-09T20:47:51.551Z,100263.19
2023-07-09T20:50:58.686Z,100264.09
2023-07-09T20:54:00.710Z,100265.06
2023-07-09T20:57:04.408Z,100266.19
2023-07-09T21:00:16.272Z,100255.66
2023-07-09T21:03:21.810Z,100267.84
2023-07-09T21:06:25.144Z,100266.75
2023-07-09T21:09:31.281Z,100267.06
2023-07-09T21:12:33.194Z,100275.38
2023-07-09T21:15:35.544Z,100262.56
2023-07-09T21:18:37.819Z,100264.50
2023-07-09T21:21:41.027Z,100263.31
2023-07-09T21:24:44.916Z,100269.47
2023-07-09T21:27:47.084Z,100255.50
2023-07-09T21:30:49.544Z,100271.53
2023-07-09T21:33:51.461Z,100263.78
2023-07-09T21:36:55.603Z,100270.47
2023-07-09T21:39:57.489Z,100273.09
2023-07-09T21:43:01.114Z,100249.41
2023-07-09T21:46:03.360Z,100261.91
2023-07-09T21:49:06.524Z,100256.16
2023-07-09T21:52:17.466Z,100274.16
2023-07-09T21:55:22.971Z,100260.16
2023-07-09T21:58:24.877Z,100268.66
2023-07-09T22:01:27.475Z,100264.53
2023-07-09T22:04:32.183Z,100254.63
2023-07-09T22:07:35.752Z,100275.00
2023-07-09T22:10:38.108Z,100279.72
2023-07-09T22:13:40.474Z,100271.31
2023-07-09T22:16:42.689Z,100277.47
2023-07-09T22:19:45.994Z,100271.81
2023-07-09T22:22:53.145Z,100271.81
2023-07-09T22:25:55.506Z,100260.97
2023-07-09T22:29:00.092Z,100275.00
2023-07-09T22:32:02.457Z,100277.44
2023-07-09T22:35:07.831Z,100266.47
2023-07-09T22:38:19.466Z,100272.56
2023-07-09T22:41:22.445Z,100269.50
2023-07-09T22:44:25.771Z,100281.41
2023-07-09T22:47:29.488Z,100271.72
2023-07-09T22:50:34.580Z,100258.34
2023-07-09T22:53:37.684Z,100278.34
2023-07-09T22:56:40.030Z,100282.09
2023-07-09T22:59:42.058Z,100274.50
2023-07-09T23:02:45.011Z,100253.47
2023-07-09T23:05:48.160Z,100275.03
2023-07-09T23:08:53.151Z,100278.34
2023-07-09T23:11:55.242Z,100284.16
2023-07-09T23:14:57.085Z,100279.19
2023-07-09T23:17:59.381Z,100278.16
2023-07-09T23:21:01.255Z,100271.97
2023-07-09T23:24:05.566Z,100269.06
2023-07-09T23:27:16.868Z,100241.72
2023-07-09T23:30:22.855Z,100273.41
2023-07-09T23:33:27.434Z,100261.81
2023-07-09T23:36:29.248Z,100274.66
2023-07-09T23:39:32.585Z,100269.03
2023-07-09T23:42:34.434Z,100273.78
2023-07-09T23:45:36.283Z,100242.88
2023-07-09T23:48:38.179Z,100245.34
2023-07-09T23:51:40.091Z,100277.69
2023-07-09T23:54:43.511Z,100276.22
2023-07-09T23:57:51.212Z,100276.25
